sensor_id;sensor_type;location;lat;lon;timestamp;temperature;humidity
16301;DHT22;8258;51.020;4.248;2023-09-18T00:01:21;20.00;99.90
16301;DHT22;8258;51.020;4.248;2023-09-18T00:03:48;20.00;99.90
16301;DHT22;8258;51.020;4.248;2023-09-18T00:06:15;19.90;99.90
16301;DHT22;8258;51.020;4.248;2023-09-18T00:08:42;19.90;99.90
16301;DHT22;8258;51.020;4.248;2023-09-18T00:11:09;19.90;99.90
16301;DHT22;8258;51.020;4.248;2023-09-18T00:13:38;19.90;99.90
16301;DHT22;8258;51.020;4.248;2023-09-18T00:16:06;19.90;99.90
16301;DHT22;8258;51.020;4.248;2023-09-18T00:18:33;19.90;99.90
16301;DHT22;8258;51.020;4.248;2023-09-18T00:21:00;19.90;99.90
16301;DHT22;8258;51.020;4.248;2023-09-18T00:23:28;19.90;99.90
16301;DHT22;8258;51.020;4.248;2023-09-18T00:25:55;19.90;99.90
16301;DHT22;8258;51.020;4.248;2023-09-18T00:28:22;19.80;99.90
16301;DHT22;8258;51.020;4.248;2023-09-18T00:30:49;19.90;99.90
16301;DHT22;8258;51.020;4.248;2023-09-18T00:33:18;19.90;99.90
16301;DHT22;8258;51.020;4.248;2023-09-18T00:35:46;19.90;99.90
16301;DHT22;8258;51.020;4.248;2023-09-18T00:38:13;19.90;99.90
16301;DHT22;8258;51.020;4.248;2023-09-18T00:40:40;19.90;99.90
16301;DHT22;8258;51.020;4.248;2023-09-18T00:43:07;19.90;99.90
16301;DHT22;8258;51.020;4.248;2023-09-18T00:45:39;19.90;99.90
16301;DHT22;8258;51.020;4.248;2023-09-18T00:48:06;19.90;99.90
16301;DHT22;8258;51.020;4.248;2023-09-18T00:50:35;19.90;99.90
16301;DHT22;8258;51.020;4.248;2023-09-18T00:53:03;19.90;99.90
16301;DHT22;8258;51.020;4.248;2023-09-18T00:55:31;19.90;99.90
16301;DHT22;8258;51.020;4.248;2023-09-18T00:57:58;19.90;99.90
16301;DHT22;8258;51.020;4.248;2023-09-18T01:00:25;19.90;99.90
16301;DHT22;8258;51.020;4.248;2023-09-18T01:02:52;19.90;99.90
16301;DHT22;8258;51.020;4.248;2023-09-18T01:05:19;19.90;99.90
16301;DHT22;8258;51.020;4.248;2023-09-18T01:07:48;19.90;99.90
16301;DHT22;8258;51.020;4.248;2023-09-18T01:10:15;19.90;99.90
16301;DHT22;8258;51.020;4.248;2023-09-18T01:12:46;19.90;99.90
16301;DHT22;8258;51.020;4.248;2023-09-18T01:15:18;19.90;99.90
16301;DHT22;8258;51.020;4.248;2023-09-18T01:17:48;19.80;99.90
16301;DHT22;8258;51.020;4.248;2023-09-18T01:20:16;19.80;99.90
16301;DHT22;8258;51.020;4.248;2023-09-18T01:22:44;19.90;99.90
16301;DHT22;8258;51.020;4.248;2023-09-18T01:25:11;19.90;99.90
16301;DHT22;8258;51.020;4.248;2023-09-18T01:27:38;19.90;99.90
16301;DHT22;8258;51.020;4.248;2023-09-18T01:30:06;19.90;99.90
16301;DHT22;8258;51.020;4.248;2023-09-18T01:32:35;19.90;99.90
16301;DHT22;8258;51.020;4.248;2023-09-18T01:35:05;19.90;99.90
16301;DHT22;8258;51.020;4.248;2023-09-18T01:37:33;19.80;99.90
16301;DHT22;8258;51.020;4.248;2023-09-18T01:40:05;19.80;99.90
16301;DHT22;8258;51.020;4.248;2023-09-18T01:42:33;19.90;99.90
16301;DHT22;8258;51.020;4.248;2023-09-18T01:45:01;19.80;99.90
16301;DHT22;8258;51.020;4.248;2023-09-18T01:47:28;19.80;99.90
16301;DHT22;8258;51.020;4.248;2023-09-18T01:49:55;19.80;99.90
16301;DHT22;8258;51.020;4.248;2023-09-18T01:52:22;19.80;99.90
16301;DHT22;8258;51.020;4.248;2023-09-18T01:54:49;19.70;99.90
16301;DHT22;8258;51.020;4.248;2023-09-18T01:57:17;19.70;99.90
16301;DHT22;8258;51.020;4.248;2023-09-18T01:59:44;19.60;99.90
16301;DHT22;8258;51.020;4.248;2023-09-18T02:02:11;19.70;99.90
16301;DHT22;8258;51.020;4.248;2023-09-18T02:04:38;19.70;99.90
16301;DHT22;8258;51.020;4.248;2023-09-18T02:07:05;19.70;99.90
16301;DHT22;8258;51.020;4.248;2023-09-18T02:09:33;19.70;99.90
16301;DHT22;8258;51.020;4.248;2023-09-18T02:12:00;19.70;99.90
16301;DHT22;8258;51.020;4.248;2023-09-18T02:14:28;19.70;99.90
16301;DHT22;8258;51.020;4.248;2023-09-18T02:16:56;19.60;99.90
16301;DHT22;8258;51.020;4.248;2023-09-18T02:19:23;19.60;99.90
16301;DHT22;8258;51.020;4.248;2023-09-18T02:21:51;19.60;99.90
16301;DHT22;8258;51.020;4.248;2023-09-18T02:24:18;19.50;99.90
16301;DHT22;8258;51.020;4.248;2023-09-18T02:26:45;19.50;99.90
16301;DHT22;8258;51.020;4.248;2023-09-18T02:29:12;19.50;99.90
16301;DHT22;8258;51.020;4.248;2023-09-18T02:31:41;19.40;99.90
16301;DHT22;8258;51.020;4.248;2023-09-18T02:34:08;19.40;99.90
16301;DHT22;8258;51.020;4.248;2023-09-18T02:36:35;19.30;99.90
16301;DHT22;8258;51.020;4.248;2023-09-18T02:39:02;19.30;99.90
16301;DHT22;8258;51.020;4.248;2023-09-18T02:41:29;19.20;99.90
16301;DHT22;8258;51.020;4.248;2023-09-18T02:43:56;19.20;99.90
16301;DHT22;8258;51.020;4.248;2023-09-18T02:46:23;19.20;99.90
16301;DHT22;8258;51.020;4.248;2023-09-18T02:48:51;19.20;99.90
16301;DHT22;8258;51.020;4.248;2023-09-18T02:51:19;19.20;99.90
16301;DHT22;8258;51.020;4.248;2023-09-18T02:53:46;19.20;99.90
16301;DHT22;8258;51.020;4.248;2023-09-18T02:56:13;19.20;99.90
16301;DHT22;8258;51.020;4.248;2023-09-18T02:58:40;19.20;99.90
16301;DHT22;8258;51.020;4.248;2023-09-18T03:01:07;19.20;99.90
16301;DHT22;8258;51.020;4.248;2023-09-18T03:03:34;19.20;99.90
16301;DHT22;8258;51.020;4.248;2023-09-18T03:06:03;19.30;99.90
16301;DHT22;8258;51.020;4.248;2023-09-18T03:08:32;19.30;99.90
16301;DHT22;8258;51.020;4.248;2023-09-18T03:10:59;19.30;99.90
16301;DHT22;8258;51.020;4.248;2023-09-18T03:13:26;19.30;99.90
16301;DHT22;8258;51.020;4.248;2023-09-18T03:15:53;19.30;99.90
16301;DHT22;8258;51.020;4.248;2023-09-18T03:18:20;19.30;99.90
16301;DHT22;8258;51.020;4.248;2023-09-18T03:20:48;19.30;99.90
16301;DHT22;8258;51.020;4.248;2023-09-18T03:23:16;19.20;99.90
16301;DHT22;8258;51.020;4.248;2023-09-18T03:25:43;19.10;99.90
16301;DHT22;8258;51.020;4.248;2023-09-18T03:28:10;19.10;99.90
16301;DHT22;8258;51.020;4.248;2023-09-18T03:30:37;19.00;99.90
16301;DHT22;8258;51.020;4.248;2023-09-18T03:33:04;18.90;99.90
16301;DHT22;8258;51.020;4.248;2023-09-18T03:35:31;18.90;99.90
16301;DHT22;8258;51.020;4.248;2023-09-18T03:37:58;18.80;99.90
16301;DHT22;8258;51.020;4.248;2023-09-18T03:40:27;18.90;99.90
16301;DHT22;8258;51.020;4.248;2023-09-18T03:42:54;18.80;99.90
16301;DHT22;8258;51.020;4.248;2023-09-18T03:45:21;18.80;99.90
16301;DHT22;8258;51.020;4.248;2023-09-18T03:47:48;18.80;99.90
16301;DHT22;8258;51.020;4.248;2023-09-18T03:50:16;18.90;99.90
16301;DHT22;8258;51.020;4.248;2023-09-18T03:52:43;19.00;99.90
16301;DHT22;8258;51.020;4.248;2023-09-18T03:55:10;19.00;99.90
16301;DHT22;8258;51.020;4.248;2023-09-18T03:57:39;19.10;99.90
16301;DHT22;8258;51.020;4.248;2023-09-18T04:00:07;19.10;99.90
16301;DHT22;8258;51.020;4.248;2023-09-18T04:02:35;19.20;99.90
16301;DHT22;8258;51.020;4.248;2023-09-18T04:05:02;19.30;99.90
16301;DHT22;8258;51.020;4.248;2023-09-18T04:07:30;19.30;99.90
16301;DHT22;8258;51.020;4.248;2023-09-18T04:09:57;19.40;99.90
16301;DHT22;8258;51.020;4.248;2023-09-18T04:12:25;19.40;99.90
16301;DHT22;8258;51.020;4.248;2023-09-18T04:14:53;19.40;99.90
16301;DHT22;8258;51.020;4.248;2023-09-18T04:17:20;19.40;99.90
16301;DHT22;8258;51.020;4.248;2023-09-18T04:19:47;19.40;99.90
16301;DHT22;8258;51.020;4.248;2023-09-18T04:22:14;19.40;99.90
16301;DHT22;8258;51.020;4.248;2023-09-18T04:24:41;19.40;99.90
16301;DHT22;8258;51.020;4.248;2023-09-18T04:27:08;19.40;99.90
16301;DHT22;8258;51.020;4.248;2023-09-18T04:29:35;19.40;99.90
16301;DHT22;8258;51.020;4.248;2023-09-18T04:32:05;19.40;99.90
16301;DHT22;8258;51.020;4.248;2023-09-18T04:34:32;19.30;99.90
16301;DHT22;8258;51.020;4.248;2023-09-18T04:37:00;19.30;99.90
16301;DHT22;8258;51.020;4.248;2023-09-18T04:39:28;19.30;99.90
16301;DHT22;8258;51.020;4.248;2023-09-18T04:41:55;19.20;99.90
16301;DHT22;8258;51.020;4.248;2023-09-18T04:44:22;19.20;99.90
16301;DHT22;8258;51.020;4.248;2023-09-18T04:46:49;19.20;99.90
16301;DHT22;8258;51.020;4.248;2023-09-18T04:49:17;19.10;99.90
16301;DHT22;8258;51.020;4.248;2023-09-18T04:56:56;19.00;99.90
16301;DHT22;8258;51.020;4.248;2023-09-18T04:59:22;19.00;99.90
16301;DHT22;8258;51.020;4.248;2023-09-18T05:09:37;18.90;99.90
16301;DHT22;8258;51.020;4.248;2023-09-18T05:19:52;18.70;99.90
16301;DHT22;8258;51.020;4.248;2023-09-18T05:22:19;18.70;99.90
16301;DHT22;8258;51.020;4.248;2023-09-18T05:24:47;18.70;99.90
16301;DHT22;8258;51.020;4.248;2023-09-18T07:05:59;18.90;99.90
16301;DHT22;8258;51.020;4.248;2023-09-18T07:08:26;18.90;99.90
16301;DHT22;8258;51.020;4.248;2023-09-18T07:10:53;18.90;99.90
16301;DHT22;8258;51.020;4.248;2023-09-18T07:13:20;19.00;99.90
16301;DHT22;8258;51.020;4.248;2023-09-18T07:15:47;19.10;99.90
16301;DHT22;8258;51.020;4.248;2023-09-18T07:18:14;19.10;99.90
16301;DHT22;8258;51.020;4.248;2023-09-18T07:20:41;19.10;99.90
16301;DHT22;8258;51.020;4.248;2023-09-18T07:25:47;20.30;99.90
16301;DHT22;8258;51.020;4.248;2023-09-18T07:28:14;20.60;99.90
16301;DHT22;8258;51.020;4.248;2023-09-18T07:30:43;20.50;99.90
16301;DHT22;8258;51.020;4.248;2023-09-18T07:33:10;20.40;99.90
16301;DHT22;8258;51.020;4.248;2023-09-18T07:35:37;20.90;99.90
16301;DHT22;8258;51.020;4.248;2023-09-18T07:38:04;21.70;99.90
16301;DHT22;8258;51.020;4.248;2023-09-18T07:40:31;22.50;99.90
16301;DHT22;8258;51.020;4.248;2023-09-18T07:42:59;22.70;99.90
16301;DHT22;8258;51.020;4.248;2023-09-18T07:45:26;22.40;99.90
16301;DHT22;8258;51.020;4.248;2023-09-18T07:47:53;22.40;99.90
16301;DHT22;8258;51.020;4.248;2023-09-18T07:50:20;22.00;99.90
16301;DHT22;8258;51.020;4.248;2023-09-18T07:52:47;21.80;99.90
16301;DHT22;8258;51.020;4.248;2023-09-18T07:55:14;21.60;99.90
16301;DHT22;8258;51.020;4.248;2023-09-18T07:57:41;21.90;99.90
16301;DHT22;8258;51.020;4.248;2023-09-18T08:00:12;21.90;99.90
16301;DHT22;8258;51.020;4.248;2023-09-18T08:02:41;21.20;99.90
16301;DHT22;8258;51.020;4.248;2023-09-18T08:05:08;21.00;99.90
16301;DHT22;8258;51.020;4.248;2023-09-18T08:07:35;20.70;99.90
16301;DHT22;8258;51.020;4.248;2023-09-18T08:10:03;20.50;99.90
16301;DHT22;8258;51.020;4.248;2023-09-18T08:12:31;20.30;99.90
16301;DHT22;8258;51.020;4.248;2023-09-18T08:14:58;20.30;99.90
16301;DHT22;8258;51.020;4.248;2023-09-18T08:17:26;20.40;99.90
16301;DHT22;8258;51.020;4.248;2023-09-18T08:19:53;20.30;99.90
16301;DHT22;8258;51.020;4.248;2023-09-18T08:22:21;20.40;99.90
16301;DHT22;8258;51.020;4.248;2023-09-18T08:24:49;20.30;99.90
16301;DHT22;8258;51.020;4.248;2023-09-18T08:27:18;20.20;99.90
16301;DHT22;8258;51.020;4.248;2023-09-18T08:29:46;20.20;99.90
16301;DHT22;8258;51.020;4.248;2023-09-18T08:32:13;20.20;99.90
16301;DHT22;8258;51.020;4.248;2023-09-18T08:34:41;20.20;99.90
16301;DHT22;8258;51.020;4.248;2023-09-18T08:37:08;20.00;99.90
16301;DHT22;8258;51.020;4.248;2023-09-18T08:39:35;19.90;99.90
16301;DHT22;8258;51.020;4.248;2023-09-18T08:42:04;19.90;99.90
16301;DHT22;8258;51.020;4.248;2023-09-18T08:44:32;19.80;99.90
16301;DHT22;8258;51.020;4.248;2023-09-18T08:46:59;19.90;99.90
16301;DHT22;8258;51.020;4.248;2023-09-18T08:49:26;19.90;99.90
16301;DHT22;8258;51.020;4.248;2023-09-18T08:51:57;19.80;99.90
16301;DHT22;8258;51.020;4.248;2023-09-18T08:54:26;19.80;99.90
16301;DHT22;8258;51.020;4.248;2023-09-18T08:56:54;19.80;99.90
16301;DHT22;8258;51.020;4.248;2023-09-18T08:59:22;19.70;99.90
16301;DHT22;8258;51.020;4.248;2023-09-18T09:01:52;19.70;99.90
16301;DHT22;8258;51.020;4.248;2023-09-18T09:04:19;19.60;99.90
16301;DHT22;8258;51.020;4.248;2023-09-18T09:06:46;19.60;99.90
16301;DHT22;8258;51.020;4.248;2023-09-18T09:09:14;19.60;99.90
16301;DHT22;8258;51.020;4.248;2023-09-18T09:11:49;19.60;99.90
16301;DHT22;8258;51.020;4.248;2023-09-18T09:14:16;19.60;99.90
16301;DHT22;8258;51.020;4.248;2023-09-18T09:16:47;19.60;99.90
16301;DHT22;8258;51.020;4.248;2023-09-18T09:19:16;19.60;99.90
16301;DHT22;8258;51.020;4.248;2023-09-18T09:21:43;19.70;99.90
16301;DHT22;8258;51.020;4.248;2023-09-18T09:24:11;19.60;99.90
16301;DHT22;8258;51.020;4.248;2023-09-18T09:26:41;19.60;99.90
16301;DHT22;8258;51.020;4.248;2023-09-18T09:29:25;19.60;99.90
16301;DHT22;8258;51.020;4.248;2023-09-18T09:31:52;19.70;99.90
16301;DHT22;8258;51.020;4.248;2023-09-18T09:34:25;19.70;99.90
16301;DHT22;8258;51.020;4.248;2023-09-18T09:36:52;19.70;99.90
16301;DHT22;8258;51.020;4.248;2023-09-18T09:39:20;19.70;99.90
16301;DHT22;8258;51.020;4.248;2023-09-18T09:41:52;19.80;99.90
16301;DHT22;8258;51.020;4.248;2023-09-18T09:44:20;19.80;99.90
16301;DHT22;8258;51.020;4.248;2023-09-18T09:46:48;19.90;99.90
16301;DHT22;8258;51.020;4.248;2023-09-18T09:49:15;19.90;99.90
16301;DHT22;8258;51.020;4.248;2023-09-18T09:51:43;19.90;99.90
16301;DHT22;8258;51.020;4.248;2023-09-18T09:54:10;19.90;99.90
16301;DHT22;8258;51.020;4.248;2023-09-18T09:56:42;19.90;99.90
16301;DHT22;8258;51.020;4.248;2023-09-18T09:59:11;19.90;99.90
16301;DHT22;8258;51.020;4.248;2023-09-18T10:01:39;19.90;99.90
16301;DHT22;8258;51.020;4.248;2023-09-18T10:04:09;19.80;99.90
16301;DHT22;8258;51.020;4.248;2023-09-18T10:06:41;19.70;99.90
16301;DHT22;8258;51.020;4.248;2023-09-18T10:09:10;19.80;99.90
16301;DHT22;8258;51.020;4.248;2023-09-18T10:11:41;19.70;99.90
16301;DHT22;8258;51.020;4.248;2023-09-18T10:14:14;19.60;99.90
16301;DHT22;8258;51.020;4.248;2023-09-18T10:16:45;19.50;99.90
16301;DHT22;8258;51.020;4.248;2023-09-18T10:19:23;19.60;99.90
16301;DHT22;8258;51.020;4.248;2023-09-18T10:22:00;19.60;99.90
16301;DHT22;8258;51.020;4.248;2023-09-18T10:24:34;19.70;99.90
16301;DHT22;8258;51.020;4.248;2023-09-18T10:27:03;19.60;99.90
16301;DHT22;8258;51.020;4.248;2023-09-18T10:29:34;19.50;99.90
16301;DHT22;8258;51.020;4.248;2023-09-18T10:32:03;19.70;99.90
16301;DHT22;8258;51.020;4.248;2023-09-18T10:34:30;19.80;99.90
16301;DHT22;8258;51.020;4.248;2023-09-18T10:37:00;19.80;99.90
16301;DHT22;8258;51.020;4.248;2023-09-18T10:39:29;20.00;99.90
16301;DHT22;8258;51.020;4.248;2023-09-18T10:42:01;20.30;99.90
16301;DHT22;8258;51.020;4.248;2023-09-18T10:44:29;20.70;99.90
16301;DHT22;8258;51.020;4.248;2023-09-18T10:46:59;21.00;99.90
16301;DHT22;8258;51.020;4.248;2023-09-18T10:49:27;22.00;99.90
16301;DHT22;8258;51.020;4.248;2023-09-18T10:51:55;23.70;99.90
16301;DHT22;8258;51.020;4.248;2023-09-18T10:54:25;24.00;99.90
16301;DHT22;8258;51.020;4.248;2023-09-18T10:56:52;23.70;99.90
16301;DHT22;8258;51.020;4.248;2023-09-18T10:59:20;24.20;99.90
16301;DHT22;8258;51.020;4.248;2023-09-18T11:01:48;24.80;99.90
16301;DHT22;8258;51.020;4.248;2023-09-18T11:04:20;24.80;99.90
16301;DHT22;8258;51.020;4.248;2023-09-18T11:07:03;25.00;99.90
16301;DHT22;8258;51.020;4.248;2023-09-18T11:09:32;25.60;99.90
16301;DHT22;8258;51.020;4.248;2023-09-18T11:12:06;25.10;99.90
16301;DHT22;8258;51.020;4.248;2023-09-18T11:14:42;23.20;99.90
16301;DHT22;8258;51.020;4.248;2023-09-18T11:17:29;22.40;99.90
16301;DHT22;8258;51.020;4.248;2023-09-18T11:20:07;22.20;99.90
16301;DHT22;8258;51.020;4.248;2023-09-18T11:22:39;22.10;99.90
16301;DHT22;8258;51.020;4.248;2023-09-18T11:25:28;22.00;99.90
16301;DHT22;8258;51.020;4.248;2023-09-18T11:27:57;22.00;99.90
16301;DHT22;8258;51.020;4.248;2023-09-18T11:30:24;22.30;99.90
16301;DHT22;8258;51.020;4.248;2023-09-18T11:32:51;22.60;99.90
16301;DHT22;8258;51.020;4.248;2023-09-18T11:35:20;22.80;99.90
16301;DHT22;8258;51.020;4.248;2023-09-18T11:38:03;22.80;99.90
16301;DHT22;8258;51.020;4.248;2023-09-18T11:40:32;22.90;99.90
16301;DHT22;8258;51.020;4.248;2023-09-18T11:43:23;23.20;99.90
16301;DHT22;8258;51.020;4.248;2023-09-18T11:45:52;24.80;99.90
16301;DHT22;8258;51.020;4.248;2023-09-18T11:48:19;25.30;99.90
16301;DHT22;8258;51.020;4.248;2023-09-18T11:50:52;25.70;99.90
16301;DHT22;8258;51.020;4.248;2023-09-18T11:53:20;26.50;99.90
16301;DHT22;8258;51.020;4.248;2023-09-18T11:55:47;26.00;99.90
16301;DHT22;8258;51.020;4.248;2023-09-18T11:58:14;25.80;99.90
16301;DHT22;8258;51.020;4.248;2023-09-18T12:00:41;26.10;99.90
16301;DHT22;8258;51.020;4.248;2023-09-18T12:03:16;26.40;99.90
16301;DHT22;8258;51.020;4.248;2023-09-18T12:05:53;26.10;99.90
16301;DHT22;8258;51.020;4.248;2023-09-18T12:08:20;25.10;99.90
16301;DHT22;8258;51.020;4.248;2023-09-18T12:10:50;26.00;99.90
16301;DHT22;8258;51.020;4.248;2023-09-18T12:13:17;26.00;99.90
16301;DHT22;8258;51.020;4.248;2023-09-18T12:15:44;25.80;99.90
16301;DHT22;8258;51.020;4.248;2023-09-18T12:18:11;25.90;99.90
16301;DHT22;8258;51.020;4.248;2023-09-18T12:20:45;26.20;99.90
16301;DHT22;8258;51.020;4.248;2023-09-18T12:23:14;26.10;99.90
16301;DHT22;8258;51.020;4.248;2023-09-18T12:25:42;26.00;99.90
16301;DHT22;8258;51.020;4.248;2023-09-18T12:28:13;26.20;99.90
16301;DHT22;8258;51.020;4.248;2023-09-18T12:30:41;26.50;99.90
16301;DHT22;8258;51.020;4.248;2023-09-18T12:33:08;26.50;99.90
16301;DHT22;8258;51.020;4.248;2023-09-18T12:35:35;25.80;99.90
16301;DHT22;8258;51.020;4.248;2023-09-18T12:38:15;26.00;99.90
16301;DHT22;8258;51.020;4.248;2023-09-18T12:40:44;25.50;99.90
16301;DHT22;8258;51.020;4.248;2023-09-18T12:43:13;25.70;99.90
16301;DHT22;8258;51.020;4.248;2023-09-18T12:45:42;26.40;99.90
16301;DHT22;8258;51.020;4.248;2023-09-18T12:48:11;26.60;99.90
16301;DHT22;8258;51.020;4.248;2023-09-18T12:50:38;26.80;99.90
16301;DHT22;8258;51.020;4.248;2023-09-18T12:53:09;27.90;99.90
16301;DHT22;8258;51.020;4.248;2023-09-18T12:55:38;28.00;99.90
16301;DHT22;8258;51.020;4.248;2023-09-18T12:58:05;27.30;99.90
16301;DHT22;8258;51.020;4.248;2023-09-18T13:00:34;26.50;99.90
16301;DHT22;8258;51.020;4.248;2023-09-18T13:03:01;27.40;99.90
16301;DHT22;8258;51.020;4.248;2023-09-18T13:05:30;27.50;99.90
16301;DHT22;8258;51.020;4.248;2023-09-18T13:08:02;27.40;99.90
16301;DHT22;8258;51.020;4.248;2023-09-18T13:10:43;27.60;99.90
16301;DHT22;8258;51.020;4.248;2023-09-18T13:13:16;27.40;99.90
16301;DHT22;8258;51.020;4.248;2023-09-18T13:15:44;27.20;99.90
16301;DHT22;8258;51.020;4.248;2023-09-18T13:18:14;27.40;99.90
16301;DHT22;8258;51.020;4.248;2023-09-18T13:20:41;27.20;99.90
16301;DHT22;8258;51.020;4.248;2023-09-18T13:23:09;26.90;99.90
16301;DHT22;8258;51.020;4.248;2023-09-18T13:25:38;26.20;99.90
16301;DHT22;8258;51.020;4.248;2023-09-18T13:28:08;26.70;99.90
16301;DHT22;8258;51.020;4.248;2023-09-18T13:30:37;27.90;99.90
16301;DHT22;8258;51.020;4.248;2023-09-18T13:33:06;28.40;99.90
16301;DHT22;8258;51.020;4.248;2023-09-18T13:35:34;27.20;99.90
16301;DHT22;8258;51.020;4.248;2023-09-18T13:38:01;26.10;99.90
16301;DHT22;8258;51.020;4.248;2023-09-18T13:40:30;25.50;99.90
16301;DHT22;8258;51.020;4.248;2023-09-18T13:42:58;25.30;99.90
16301;DHT22;8258;51.020;4.248;2023-09-18T13:45:27;25.70;99.90
16301;DHT22;8258;51.020;4.248;2023-09-18T13:47:54;26.00;99.90
16301;DHT22;8258;51.020;4.248;2023-09-18T13:50:21;25.40;99.90
16301;DHT22;8258;51.020;4.248;2023-09-18T13:52:48;24.90;99.90
16301;DHT22;8258;51.020;4.248;2023-09-18T13:55:16;24.40;99.90
16301;DHT22;8258;51.020;4.248;2023-09-18T13:57:43;23.90;99.90
16301;DHT22;8258;51.020;4.248;2023-09-18T14:00:11;24.00;99.90
16301;DHT22;8258;51.020;4.248;2023-09-18T14:02:41;24.10;99.90
16301;DHT22;8258;51.020;4.248;2023-09-18T14:05:09;24.10;99.90
16301;DHT22;8258;51.020;4.248;2023-09-18T14:07:37;23.90;99.90
16301;DHT22;8258;51.020;4.248;2023-09-18T14:10:06;23.70;99.90
16301;DHT22;8258;51.020;4.248;2023-09-18T14:12:33;23.50;99.90
16301;DHT22;8258;51.020;4.248;2023-09-18T14:15:00;23.20;99.90
16301;DHT22;8258;51.020;4.248;2023-09-18T14:17:27;22.80;99.90
16301;DHT22;8258;51.020;4.248;2023-09-18T14:19:56;21.80;99.90
16301;DHT22;8258;51.020;4.248;2023-09-18T14:22:24;20.80;99.90
16301;DHT22;8258;51.020;4.248;2023-09-18T14:24:51;20.00;99.90
16301;DHT22;8258;51.020;4.248;2023-09-18T14:27:18;19.90;99.90
16301;DHT22;8258;51.020;4.248;2023-09-18T14:29:45;20.80;99.90
16301;DHT22;8258;51.020;4.248;2023-09-18T14:32:12;21.00;99.90
16301;DHT22;8258;51.020;4.248;2023-09-18T14:34:39;21.10;99.90
16301;DHT22;8258;51.020;4.248;2023-09-18T14:37:07;21.00;99.90
16301;DHT22;8258;51.020;4.248;2023-09-18T14:39:34;20.80;99.90
16301;DHT22;8258;51.020;4.248;2023-09-18T14:42:01;20.60;99.90
16301;DHT22;8258;51.020;4.248;2023-09-18T14:44:28;20.40;99.90
16301;DHT22;8258;51.020;4.248;2023-09-18T14:46:55;20.30;99.90
16301;DHT22;8258;51.020;4.248;2023-09-18T14:49:23;20.00;99.90
16301;DHT22;8258;51.020;4.248;2023-09-18T14:51:50;19.50;99.90
16301;DHT22;8258;51.020;4.248;2023-09-18T14:54:20;19.20;99.90
16301;DHT22;8258;51.020;4.248;2023-09-18T14:56:48;19.00;99.90
16301;DHT22;8258;51.020;4.248;2023-09-18T14:59:15;18.80;99.90
16301;DHT22;8258;51.020;4.248;2023-09-18T15:01:42;18.70;99.90
16301;DHT22;8258;51.020;4.248;2023-09-18T15:04:09;18.70;99.90
16301;DHT22;8258;51.020;4.248;2023-09-18T15:06:36;18.80;99.90
16301;DHT22;8258;51.020;4.248;2023-09-18T15:09:03;20.40;99.90
16301;DHT22;8258;51.020;4.248;2023-09-18T15:11:34;22.50;99.90
16301;DHT22;8258;51.020;4.248;2023-09-18T15:14:01;24.00;99.90
16301;DHT22;8258;51.020;4.248;2023-09-18T15:16:28;24.80;99.90
16301;DHT22;8258;51.020;4.248;2023-09-18T15:18:55;25.60;99.90
16301;DHT22;8258;51.020;4.248;2023-09-18T15:21:24;25.30;99.90
16301;DHT22;8258;51.020;4.248;2023-09-18T15:23:52;24.60;99.90
16301;DHT22;8258;51.020;4.248;2023-09-18T15:26:18;23.30;99.90
16301;DHT22;8258;51.020;4.248;2023-09-18T15:28:47;22.40;99.90
16301;DHT22;8258;51.020;4.248;2023-09-18T15:31:14;21.80;99.90
16301;DHT22;8258;51.020;4.248;2023-09-18T15:33:41;21.20;99.90
16301;DHT22;8258;51.020;4.248;2023-09-18T15:36:08;20.80;99.90
16301;DHT22;8258;51.020;4.248;2023-09-18T15:38:35;20.50;99.90
16301;DHT22;8258;51.020;4.248;2023-09-18T15:41:02;20.40;99.90
16301;DHT22;8258;51.020;4.248;2023-09-18T15:43:29;20.50;99.90
16301;DHT22;8258;51.020;4.248;2023-09-18T15:45:58;20.70;99.90
16301;DHT22;8258;51.020;4.248;2023-09-18T15:48:26;20.90;99.90
16301;DHT22;8258;51.020;4.248;2023-09-18T15:50:53;21.10;99.90
16301;DHT22;8258;51.020;4.248;2023-09-18T15:53:20;21.30;99.90
16301;DHT22;8258;51.020;4.248;2023-09-18T15:55:47;21.40;99.90
16301;DHT22;8258;51.020;4.248;2023-09-18T15:58:13;21.30;99.90
16301;DHT22;8258;51.020;4.248;2023-09-18T16:00:42;21.10;99.90
16301;DHT22;8258;51.020;4.248;2023-09-18T16:03:10;21.10;99.90
16301;DHT22;8258;51.020;4.248;2023-09-18T16:05:37;21.00;99.90
16301;DHT22;8258;51.020;4.248;2023-09-18T16:08:04;21.00;99.90
16301;DHT22;8258;51.020;4.248;2023-09-18T16:10:31;20.90;99.90
16301;DHT22;8258;51.020;4.248;2023-09-18T16:12:58;20.70;99.90
16301;DHT22;8258;51.020;4.248;2023-09-18T16:15:26;20.60;99.90
16301;DHT22;8258;51.020;4.248;2023-09-18T16:17:53;20.70;99.90
16301;DHT22;8258;51.020;4.248;2023-09-18T16:20:22;20.70;99.90
16301;DHT22;8258;51.020;4.248;2023-09-18T16:22:50;20.80;99.90
16301;DHT22;8258;51.020;4.248;2023-09-18T16:25:17;20.90;99.90
16301;DHT22;8258;51.020;4.248;2023-09-18T16:27:44;21.00;99.90
16301;DHT22;8258;51.020;4.248;2023-09-18T16:30:11;20.90;99.90
16301;DHT22;8258;51.020;4.248;2023-09-18T16:32:38;20.90;99.90
16301;DHT22;8258;51.020;4.248;2023-09-18T16:35:07;20.90;99.90
16301;DHT22;8258;51.020;4.248;2023-09-18T16:37:35;20.80;99.90
16301;DHT22;8258;51.020;4.248;2023-09-18T16:40:03;20.60;99.90
16301;DHT22;8258;51.020;4.248;2023-09-18T16:42:31;20.50;99.90
16301;DHT22;8258;51.020;4.248;2023-09-18T16:44:58;20.40;99.90
16301;DHT22;8258;51.020;4.248;2023-09-18T16:47:26;20.40;99.90
16301;DHT22;8258;51.020;4.248;2023-09-18T16:49:53;20.40;99.90
16301;DHT22;8258;51.020;4.248;2023-09-18T16:52:20;20.20;99.90
16301;DHT22;8258;51.020;4.248;2023-09-18T16:54:49;20.20;99.90
16301;DHT22;8258;51.020;4.248;2023-09-18T16:57:16;20.20;99.90
16301;DHT22;8258;51.020;4.248;2023-09-18T16:59:43;20.20;99.90
16301;DHT22;8258;51.020;4.248;2023-09-18T17:02:13;20.10;99.90
16301;DHT22;8258;51.020;4.248;2023-09-18T17:04:39;20.00;99.90
16301;DHT22;8258;51.020;4.248;2023-09-18T17:07:07;20.30;99.90
16301;DHT22;8258;51.020;4.248;2023-09-18T17:09:35;20.60;99.90
16301;DHT22;8258;51.020;4.248;2023-09-18T17:12:04;20.50;99.90
16301;DHT22;8258;51.020;4.248;2023-09-18T17:14:32;20.30;99.90
16301;DHT22;8258;51.020;4.248;2023-09-18T17:16:59;20.00;99.90
16301;DHT22;8258;51.020;4.248;2023-09-18T17:19:26;19.90;99.90
16301;DHT22;8258;51.020;4.248;2023-09-18T17:21:53;19.80;99.90
16301;DHT22;8258;51.020;4.248;2023-09-18T17:24:20;19.80;99.90
16301;DHT22;8258;51.020;4.248;2023-09-18T17:26:47;19.70;99.90
16301;DHT22;8258;51.020;4.248;2023-09-18T17:29:16;19.80;99.90
16301;DHT22;8258;51.020;4.248;2023-09-18T17:31:43;19.70;99.90
16301;DHT22;8258;51.020;4.248;2023-09-18T17:34:10;19.60;99.90
16301;DHT22;8258;51.020;4.248;2023-09-18T17:36:38;19.50;99.90
16301;DHT22;8258;51.020;4.248;2023-09-18T17:39:05;19.40;99.90
16301;DHT22;8258;51.020;4.248;2023-09-18T17:41:33;19.30;99.90
16301;DHT22;8258;51.020;4.248;2023-09-18T17:44:00;19.20;99.90
16301;DHT22;8258;51.020;4.248;2023-09-18T17:46:29;19.10;99.90
16301;DHT22;8258;51.020;4.248;2023-09-18T17:48:56;19.00;99.90
16301;DHT22;8258;51.020;4.248;2023-09-18T17:51:23;19.00;99.90
16301;DHT22;8258;51.020;4.248;2023-09-18T17:53:50;18.90;99.90